createdAt,value
2024-01-05T00:02:21.166Z,7.20
2024-01-05T00:04:57.698Z,7.10
2024-01-05T00:07:34.079Z,6.50
2024-01-05T00:10:12.319Z,7.00
2024-01-05T00:12:48.758Z,5.40
2024-01-05T00:15:25.599Z,4.50
2024-01-05T00:18:02.029Z,4.60
2024-01-05T00:20:38.977Z,12.10
2024-01-05T00:23:15.659Z,5.80
2024-01-05T00:25:52.265Z,8.60
2024-01-05T00:28:31.255Z,6.20
2024-01-05T00:31:08.011Z,6.60
2024-01-05T00:33:44.807Z,9.70
2024-01-05T00:36:21.444Z,14.20
2024-01-05T00:38:57.885Z,8.90
2024-01-05T00:41:34.376Z,10.80
2024-01-05T00:44:11.145Z,15.60
2024-01-05T00:46:47.669Z,11.50
2024-01-05T00:49:24.355Z,10.60
2024-01-05T00:52:00.823Z,12.00
2024-01-05T00:54:37.305Z,13.60
2024-01-05T00:57:14.233Z,7.50
2024-01-05T00:59:50.877Z,8.30
2024-01-05T01:02:27.521Z,3.90
2024-01-05T01:05:04.164Z,4.50
2024-01-05T01:07:40.691Z,8.30
2024-01-05T01:10:17.351Z,9.70
2024-01-05T01:12:54.110Z,7.80
2024-01-05T01:15:30.763Z,6.90
2024-01-05T01:18:07.733Z,11.70
2024-01-05T01:20:44.449Z,8.10
2024-01-05T01:23:21.408Z,8.50
2024-01-05T01:25:57.903Z,9.00
2024-01-05T01:28:34.655Z,6.40
2024-01-05T01:31:11.414Z,9.40
2024-01-05T01:33:48.983Z,6.90
2024-01-05T01:36:25.644Z,7.70
2024-01-05T01:39:02.419Z,8.60
2024-01-05T01:41:39.232Z,5.80
2024-01-05T01:44:15.903Z,10.10
2024-01-05T01:46:53.446Z,7.90
2024-01-05T01:49:31.569Z,11.30
2024-01-05T01:52:09.578Z,10.40
2024-01-05T01:54:46.663Z,6.40
2024-01-05T01:59:59.127Z,4.50
2024-01-05T02:02:36.773Z,4.60
2024-01-05T02:05:13.582Z,5.40
2024-01-05T02:07:50.699Z,8.50
2024-01-05T02:10:27.875Z,12.30
2024-01-05T02:15:38.673Z,14.10
2024-01-05T02:18:20.173Z,7.10
2024-01-05T02:20:57.047Z,4.30
2024-01-05T02:23:35.222Z,6.60
2024-01-05T02:26:12.703Z,8.10
2024-01-05T02:28:49.299Z,8.30
2024-01-05T02:31:26.238Z,11.50
2024-01-05T02:34:03.488Z,9.80
2024-01-05T02:36:40.383Z,9.70
2024-01-05T02:39:18.309Z,6.70
2024-01-05T02:41:54.837Z,7.90
2024-01-05T02:44:31.341Z,7.40
2024-01-05T02:47:08.026Z,7.60
2024-01-05T02:49:44.652Z,5.50
2024-01-05T02:52:21.778Z,5.20
2024-01-05T02:54:59.123Z,5.30
2024-01-05T02:57:35.837Z,7.80
2024-01-05T03:00:14.103Z,6.30
2024-01-05T03:02:50.642Z,9.00
2024-01-05T03:05:27.660Z,5.60
2024-01-05T03:08:04.397Z,6.40
2024-01-05T03:10:40.958Z,5.20
2024-01-05T03:13:17.655Z,12.70
2024-01-05T03:15:55.026Z,8.00
2024-01-05T03:21:05.437Z,7.40
2024-01-05T03:23:42.138Z,6.10
2024-01-05T03:26:18.949Z,5.90
2024-01-05T03:28:55.409Z,7.10
2024-01-05T03:31:32.142Z,7.20
2024-01-05T03:34:08.941Z,6.40
2024-01-05T03:36:46.065Z,8.00
2024-01-05T03:41:56.755Z,6.10
2024-01-05T03:44:33.489Z,4.40
2024-01-05T03:47:10.656Z,8.20
2024-01-05T03:49:47.149Z,3.50
2024-01-05T03:52:23.775Z,6.80
2024-01-05T03:55:00.388Z,13.10
2024-01-05T03:57:37.106Z,10.60
2024-01-05T04:00:15.528Z,20.20
2024-01-05T04:02:52.334Z,21.70
2024-01-05T04:05:29.010Z,22.00
2024-01-05T04:08:05.811Z,18.40
2024-01-05T04:10:42.907Z,15.40
2024-01-05T04:13:19.765Z,14.80
2024-01-05T04:15:56.717Z,12.70
2024-01-05T04:18:33.681Z,14.20
2024-01-05T04:21:11.009Z,13.70
2024-01-05T04:23:47.448Z,10.20
2024-01-05T04:26:23.942Z,8.00
2024-01-05T04:29:00.711Z,7.70
2024-01-05T04:31:37.306Z,7.80
2024-01-05T04:34:13.894Z,6.10
2024-01-05T04:36:50.751Z,6.50
2024-01-05T04:39:27.436Z,7.40
2024-01-05T04:42:04.753Z,10.00
2024-01-05T04:47:15.100Z,5.00
2024-01-05T04:49:52.003Z,5.30
2024-01-05T04:52:28.947Z,9.40
2024-01-05T04:55:06.026Z,6.10
2024-01-05T04:57:45.094Z,9.60
2024-01-05T05:00:24.173Z,5.00
2024-01-05T05:03:00.726Z,6.60
2024-01-05T05:05:37.420Z,6.70
2024-01-05T05:08:15.318Z,6.20
2024-01-05T05:10:52.266Z,5.80
2024-01-05T05:13:28.845Z,5.60
2024-01-05T05:16:05.587Z,6.00
2024-01-05T05:18:42.423Z,5.40
2024-01-05T05:21:19.679Z,6.50
2024-01-05T05:23:57.437Z,8.30
2024-01-05T05:26:33.945Z,6.30
2024-01-05T05:29:10.635Z,9.00
2024-01-05T05:31:47.731Z,6.80
2024-01-05T05:34:24.547Z,5.50
2024-01-05T05:37:01.222Z,5.40
2024-01-05T05:39:37.802Z,6.00
2024-01-05T05:42:15.044Z,4.40
2024-01-05T05:47:25.639Z,4.20
2024-01-05T05:50:02.493Z,9.30
2024-01-05T05:52:39.466Z,10.70
2024-01-05T05:55:16.514Z,6.70
2024-01-05T05:57:53.256Z,5.20
2024-01-05T06:00:30.128Z,9.20
2024-01-05T06:03:09.492Z,5.70
2024-01-05T06:05:47.687Z,7.30
2024-01-05T06:08:24.288Z,6.40
2024-01-05T06:11:00.904Z,4.90
2024-01-05T06:13:38.372Z,11.90
2024-01-05T06:16:15.350Z,8.10
2024-01-05T06:18:52.417Z,10.40
2024-01-05T06:21:29.549Z,5.70
2024-01-05T06:24:06.446Z,10.90
2024-01-05T06:26:43.001Z,25.60
2024-01-05T06:29:19.659Z,29.70
2024-01-05T06:31:56.375Z,25.30
2024-01-05T06:34:33.093Z,34.40
2024-01-05T06:37:10.190Z,89.80
2024-01-05T06:39:46.690Z,54.10
2024-01-05T06:42:23.688Z,38.60
2024-01-05T06:45:00.420Z,14.50
2024-01-05T06:47:36.927Z,12.30
2024-01-05T06:50:15.072Z,9.70
2024-01-05T06:52:51.819Z,8.40
2024-01-05T06:55:28.947Z,8.50
2024-01-05T06:58:05.639Z,3.90
2024-01-05T07:00:42.240Z,5.30
2024-01-05T07:03:19.035Z,6.70
2024-01-05T07:05:56.189Z,7.60
2024-01-05T07:08:32.715Z,6.70
2024-01-05T07:11:11.349Z,6.60
2024-01-05T07:13:49.184Z,6.60
2024-01-05T07:16:27.166Z,4.60
2024-01-05T07:19:03.923Z,8.80
2024-01-05T07:21:45.754Z,8.00
2024-01-05T07:24:23.961Z,10.20
2024-01-05T07:27:00.656Z,8.90
2024-01-05T07:29:37.852Z,6.50
2024-01-05T07:32:14.647Z,8.10
2024-01-05T07:34:51.657Z,9.40
2024-01-05T07:37:28.214Z,10.80
2024-01-05T07:40:05.221Z,9.60
2024-01-05T07:42:42.226Z,10.70
2024-01-05T07:45:19.148Z,14.90
2024-01-05T07:47:56.699Z,10.10
2024-01-05T07:50:33.429Z,13.80
2024-01-05T07:53:10.276Z,15.40
2024-01-05T07:55:47.068Z,9.00
2024-01-05T07:58:24.440Z,11.30
2024-01-05T08:01:01.943Z,16.60
2024-01-05T08:03:38.748Z,10.80
2024-01-05T08:06:21.416Z,11.90
2024-01-05T08:08:58.248Z,10.40
2024-01-05T08:11:34.807Z,14.30
2024-01-05T08:14:13.251Z,12.00
2024-01-05T08:16:49.949Z,12.10
2024-01-05T08:19:26.625Z,13.80
2024-01-05T08:22:03.305Z,6.40
2024-01-05T08:24:41.065Z,4.40
2024-01-05T08:27:17.657Z,7.40
2024-01-05T08:29:54.443Z,4.90
2024-01-05T08:32:31.039Z,7.00
2024-01-05T08:35:08.536Z,4.70
2024-01-05T08:37:45.008Z,6.00
2024-01-05T08:40:27.723Z,6.00
2024-01-05T08:43:04.513Z,3.20
2024-01-05T08:45:41.171Z,4.70
2024-01-05T08:48:18.436Z,7.90
2024-01-05T08:50:55.383Z,4.80
2024-01-05T08:53:31.999Z,4.50
2024-01-05T08:56:09.582Z,2.80
2024-01-05T08:58:46.145Z,6.00
2024-01-05T09:01:23.546Z,3.60
2024-01-05T09:06:34.729Z,5.10
2024-01-05T09:09:12.074Z,9.60
2024-01-05T09:14:22.388Z,7.60
2024-01-05T09:16:58.900Z,9.10
2024-01-05T09:19:37.011Z,5.00
2024-01-05T09:22:14.485Z,6.50
2024-01-05T09:24:51.433Z,7.60
2024-01-05T09:27:29.199Z,7.50
2024-01-05T09:30:06.532Z,6.20
2024-01-05T09:32:43.310Z,5.00
2024-01-05T09:35:19.980Z,4.50
2024-01-05T09:37:58.406Z,3.90
2024-01-05T09:40:35.497Z,4.40
2024-01-05T09:43:12.620Z,8.40
2024-01-05T09:45:52.309Z,4.80
2024-01-05T09:48:36.405Z,5.90
2024-01-05T09:51:16.594Z,7.30
2024-01-05T09:53:53.845Z,6.20
2024-01-05T09:59:08.493Z,6.40
2024-01-05T10:01:47.446Z,13.80
2024-01-05T10:04:24.224Z,7.60
2024-01-05T10:07:08.552Z,8.80
2024-01-05T10:09:59.961Z,6.90
2024-01-05T10:12:37.078Z,7.30
2024-01-05T10:15:14.834Z,7.90
2024-01-05T10:17:51.321Z,8.50
2024-01-05T10:20:31.428Z,9.70
2024-01-05T10:23:13.014Z,4.30
2024-01-05T10:25:50.902Z,6.20
2024-01-05T10:28:33.954Z,7.50
2024-01-05T10:31:21.314Z,8.50
2024-01-05T10:33:59.688Z,12.40
2024-01-05T10:36:37.036Z,26.30
2024-01-05T10:39:15.922Z,8.60
2024-01-05T10:41:53.156Z,4.60
2024-01-05T10:47:03.467Z,5.30
2024-01-05T10:49:43.152Z,2.60
2024-01-05T10:52:20.208Z,4.60
2024-01-05T10:54:57.672Z,3.40
2024-01-05T10:57:39.984Z,5.10
2024-01-05T11:00:18.635Z,19.20
2024-01-05T11:02:57.809Z,105.20
2024-01-05T11:05:35.656Z,12.80
2024-01-05T11:08:18.574Z,12.30
2024-01-05T11:11:05.126Z,9.90
2024-01-05T11:14:01.931Z,11.60
2024-01-05T11:17:01.092Z,11.40
2024-01-05T11:19:59.108Z,5.20
2024-01-05T11:22:38.784Z,4.90
2024-01-05T11:25:16.800Z,3.60
2024-01-05T11:27:53.778Z,6.50
2024-01-05T11:30:46.849Z,9.40
2024-01-05T11:33:51.714Z,5.20
2024-01-05T11:37:01.546Z,5.90
2024-01-05T11:39:54.783Z,4.30
2024-01-05T11:42:38.430Z,7.20
2024-01-05T11:45:16.929Z,6.70
2024-01-05T11:47:53.910Z,6.00
2024-01-05T11:50:35.487Z,7.30
2024-01-05T11:53:21.138Z,7.00
2024-01-05T11:55:58.867Z,5.80
2024-01-05T11:58:37.399Z,81.10
2024-01-05T12:01:17.418Z,6.10
2024-01-05T12:03:56.309Z,10.30
2024-01-05T12:06:32.943Z,5.30
2024-01-05T12:09:10.769Z,7.60
2024-01-05T12:11:47.264Z,3.40
2024-01-05T12:14:34.756Z,4.90
2024-01-05T12:17:21.358Z,5.00
2024-01-05T12:19:58.620Z,4.40
2024-01-05T12:22:35.283Z,10.00
2024-01-05T12:25:14.712Z,7.10
2024-01-05T12:30:25.891Z,11.70
2024-01-05T12:35:53.614Z,5.90
2024-01-05T12:38:31.680Z,4.30
2024-01-05T12:41:18.798Z,5.70
2024-01-05T12:43:59.084Z,6.00
2024-01-05T12:46:44.093Z,5.90
2024-01-05T12:49:29.530Z,15.70
2024-01-05T12:52:06.412Z,14.30
2024-01-05T12:54:49.183Z,6.40
2024-01-05T12:57:31.264Z,7.70
2024-01-05T13:00:12.233Z,6.60
2024-01-05T13:02:48.970Z,6.10
2024-01-05T13:05:38.672Z,3.50
2024-01-05T13:10:49.337Z,3.20
2024-01-05T13:13:25.882Z,3.20
2024-01-05T13:16:03.630Z,2.10
2024-01-05T13:18:40.361Z,13.50
2024-01-05T13:21:17.675Z,32.10
2024-01-05T13:23:56.504Z,14.50
2024-01-05T13:26:33.043Z,17.20
2024-01-05T13:29:09.622Z,8.70
2024-01-05T13:31:46.845Z,7.20
2024-01-05T13:34:23.818Z,9.00
2024-01-05T13:37:03.408Z,9.80
2024-01-05T13:39:43.427Z,17.60
2024-01-05T13:42:19.887Z,32.50
2024-01-05T13:44:56.316Z,24.90
2024-01-05T13:47:33.022Z,18.50
2024-01-05T13:50:11.590Z,29.80
2024-01-05T13:52:48.215Z,19.00
2024-01-05T13:55:25.379Z,52.10
2024-01-05T13:58:01.975Z,23.40
2024-01-05T14:00:39.745Z,13.30
2024-01-05T14:03:16.919Z,18.10
2024-01-05T14:05:53.538Z,39.30
2024-01-05T14:08:30.574Z,32.70
2024-01-05T14:11:07.130Z,10.50
2024-01-05T14:13:43.633Z,12.90
2024-01-05T14:16:20.030Z,15.10
2024-01-05T14:18:56.788Z,8.60
2024-01-05T14:21:33.429Z,7.40
2024-01-05T14:24:10.991Z,8.90
2024-01-05T14:26:48.896Z,5.10
2024-01-05T14:29:26.412Z,3.90
2024-01-05T14:32:04.644Z,4.40
2024-01-05T14:34:42.626Z,5.70
2024-01-05T14:37:20.416Z,29.90
2024-01-05T14:39:57.965Z,59.40
2024-01-05T14:42:34.645Z,45.40
2024-01-05T14:47:46.233Z,30.00
2024-01-05T14:50:23.148Z,20.90
2024-01-05T14:53:07.954Z,45.20
2024-01-05T14:55:47.731Z,18.00
2024-01-05T14:58:24.143Z,20.40
2024-01-05T15:01:00.804Z,23.00
2024-01-05T15:03:38.747Z,18.70
2024-01-05T15:06:16.131Z,15.20
2024-01-05T15:08:52.885Z,12.20
2024-01-05T15:11:33.156Z,14.20
2024-01-05T15:14:10.292Z,25.10
2024-01-05T15:16:51.767Z,17.60
2024-01-05T15:19:28.609Z,14.60
2024-01-05T15:22:05.068Z,11.30
2024-01-05T15:24:46.788Z,8.80
2024-01-05T15:27:23.971Z,6.60
2024-01-05T15:30:00.681Z,82.00
2024-01-05T15:32:37.310Z,78.00
2024-01-05T15:35:15.032Z,60.70
2024-01-05T15:37:51.853Z,87.60
2024-01-05T15:40:31.519Z,96.00
2024-01-05T15:43:09.341Z,69.10
2024-01-05T15:45:45.896Z,83.50
2024-01-05T15:48:22.872Z,58.20
2024-01-05T15:50:59.469Z,129.20
2024-01-05T15:53:35.981Z,25.20
2024-01-05T15:56:13.414Z,18.20
2024-01-05T15:58:50.339Z,12.00
2024-01-05T16:01:26.988Z,12.30
2024-01-05T16:04:03.658Z,8.00
2024-01-05T16:06:40.159Z,5.60
2024-01-05T16:09:16.745Z,7.50
2024-01-05T16:11:53.309Z,7.60
2024-01-05T16:14:29.779Z,7.40
2024-01-05T16:17:07.032Z,4.90
2024-01-05T16:19:51.167Z,5.10
2024-01-05T16:22:27.698Z,10.30
2024-01-05T16:25:04.454Z,8.60
2024-01-05T16:27:40.909Z,3.20
2024-01-05T16:30:18.494Z,4.90
2024-01-05T16:32:55.349Z,42.20
2024-01-05T16:35:32.472Z,73.90
2024-01-05T16:38:08.861Z,54.70
2024-01-05T16:40:45.586Z,120.20
2024-01-05T16:43:22.343Z,69.10
2024-01-05T16:45:59.799Z,53.10
2024-01-05T16:48:36.693Z,72.20
2024-01-05T16:51:13.783Z,64.30
2024-01-05T16:53:52.245Z,40.10
2024-01-05T16:56:30.644Z,30.40
2024-01-05T16:59:07.145Z,23.10
2024-01-05T17:01:43.691Z,15.10
2024-01-05T17:04:20.344Z,15.80
2024-01-05T17:06:59.485Z,11.90
2024-01-05T17:09:36.641Z,12.10
2024-01-05T17:14:47.427Z,4.70
2024-01-05T17:17:23.818Z,4.60
2024-01-05T17:20:13.602Z,3.40
2024-01-05T17:22:58.057Z,2.30
2024-01-05T17:25:34.407Z,4.10
2024-01-05T17:28:11.633Z,4.90
2024-01-05T17:33:22.583Z,5.90
2024-01-05T17:36:02.844Z,3.30
2024-01-05T17:38:39.342Z,5.20
2024-01-05T17:41:15.765Z,108.50
2024-01-05T17:43:52.546Z,96.60
2024-01-05T17:46:28.887Z,31.10
2024-01-05T17:49:05.430Z,40.80
2024-01-05T17:51:44.256Z,28.00
2024-01-05T17:54:22.543Z,22.10
2024-01-05T17:57:03.646Z,11.60
2024-01-05T17:59:40.218Z,9.70
2024-01-05T18:02:16.775Z,8.20
2024-01-05T18:04:53.265Z,7.00
2024-01-05T18:07:29.847Z,5.00
2024-01-05T18:10:06.915Z,11.50
2024-01-05T18:12:44.375Z,4.70
2024-01-05T18:15:21.305Z,5.70
2024-01-05T18:17:58.031Z,5.40
2024-01-05T18:20:34.734Z,6.60
2024-01-05T18:23:13.345Z,2.80
2024-01-05T18:25:52.163Z,3.70
2024-01-05T18:28:28.593Z,2.90
2024-01-05T18:31:05.040Z,3.40
2024-01-05T18:33:42.750Z,5.50
2024-01-05T18:36:20.415Z,5.30
2024-01-05T18:38:57.529Z,5.90
2024-01-05T18:41:36.926Z,2.70
2024-01-05T18:44:15.827Z,4.70
2024-01-05T18:46:53.521Z,3.40
2024-01-05T18:49:30.457Z,4.40
2024-01-05T18:52:07.427Z,6.20
2024-01-05T18:54:43.882Z,14.70
2024-01-05T18:57:21.178Z,172.70
2024-01-05T18:59:58.103Z,78.20
2024-01-05T19:02:35.537Z,45.80
2024-01-05T19:05:14.605Z,72.30
2024-01-05T19:07:51.102Z,26.70
2024-01-05T19:10:30.934Z,20.30
2024-01-05T19:13:08.029Z,24.10
2024-01-05T19:15:44.667Z,27.80
2024-01-05T19:18:21.887Z,12.70
2024-01-05T19:23:32.161Z,6.80
2024-01-05T19:26:08.598Z,18.20
2024-01-05T19:28:45.065Z,8.60
2024-01-05T19:31:21.640Z,9.20
2024-01-05T19:33:58.243Z,22.70
2024-01-05T19:36:34.734Z,25.30
2024-01-05T19:39:11.711Z,20.50
2024-01-05T19:41:52.550Z,31.70
2024-01-05T19:44:29.065Z,15.60
2024-01-05T19:47:05.596Z,17.50
2024-01-05T19:49:43.719Z,15.70
2024-01-05T19:52:20.347Z,12.00
2024-01-05T19:54:59.398Z,9.90
2024-01-05T19:57:36.379Z,28.70
2024-01-05T20:00:15.070Z,19.80
2024-01-05T20:02:51.838Z,12.40
2024-01-05T20:05:28.678Z,13.70
2024-01-05T20:08:05.304Z,9.30
2024-01-05T20:10:42.581Z,11.30
2024-01-05T20:13:19.338Z,10.60
2024-01-05T20:15:57.092Z,9.10
2024-01-05T20:18:33.876Z,6.80
2024-01-05T20:21:16.388Z,4.00
2024-01-05T20:23:53.489Z,5.20
2024-01-05T20:26:29.931Z,5.10
2024-01-05T20:29:06.898Z,5.20
2024-01-05T20:31:43.515Z,7.90
2024-01-05T20:34:21.466Z,33.40
2024-01-05T20:36:58.834Z,21.60
2024-01-05T20:39:35.830Z,13.10
2024-01-05T20:42:12.629Z,22.50
2024-01-05T20:44:49.482Z,125.60
2024-01-05T20:47:26.124Z,38.80
2024-01-05T20:50:05.006Z,63.80
2024-01-05T20:52:41.991Z,188.70
2024-01-05T20:55:18.881Z,67.50
2024-01-05T20:57:55.517Z,36.80
2024-01-05T21:00:32.184Z,20.60
2024-01-05T21:03:09.259Z,12.70
2024-01-05T21:05:45.897Z,7.70
2024-01-05T21:08:22.302Z,6.50
2024-01-05T21:10:59.090Z,8.10
2024-01-05T21:13:35.649Z,5.70
2024-01-05T21:16:13.685Z,23.90
2024-01-05T21:18:51.131Z,205.50
2024-01-05T21:21:29.968Z,100.20
2024-01-05T21:24:07.097Z,158.70
2024-01-05T21:26:46.268Z,202.90
2024-01-05T21:29:22.911Z,159.20
2024-01-05T21:31:59.704Z,90.10
2024-01-05T21:34:37.025Z,73.60
2024-01-05T21:37:14.834Z,112.50
2024-01-05T21:39:52.631Z,70.20
2024-01-05T21:42:29.836Z,55.80
2024-01-05T21:45:08.325Z,73.70
2024-01-05T21:47:45.752Z,52.70
2024-01-05T21:52:56.697Z,12.20
2024-01-05T21:55:33.545Z,5.60
2024-01-05T21:58:13.465Z,6.10
2024-01-05T22:00:51.739Z,5.70
2024-01-05T22:03:28.794Z,6.00
2024-01-05T22:06:05.665Z,8.50
2024-01-05T22:08:42.321Z,3.60
2024-01-05T22:11:18.942Z,5.10
2024-01-05T22:13:55.794Z,28.60
2024-01-05T22:16:32.383Z,61.00
2024-01-05T22:19:09.131Z,78.90
2024-01-05T22:21:47.834Z,40.50
2024-01-05T22:24:24.721Z,19.60
2024-01-05T22:27:07.101Z,20.60
2024-01-05T22:29:44.864Z,9.80
2024-01-05T22:32:21.510Z,15.50
2024-01-05T22:34:58.158Z,23.30
2024-01-05T22:37:34.812Z,19.90
2024-01-05T22:40:12.925Z,8.60
2024-01-05T22:42:51.507Z,9.50
2024-01-05T22:45:28.251Z,50.90
2024-01-05T22:48:05.113Z,133.30
2024-01-05T22:50:42.085Z,73.00
2024-01-05T22:53:19.095Z,112.70
2024-01-05T22:55:55.741Z,68.10
2024-01-05T22:58:32.357Z,35.70
2024-01-05T23:01:09.008Z,17.60
2024-01-05T23:03:45.691Z,14.30
2024-01-05T23:06:23.376Z,11.20
2024-01-05T23:09:00.407Z,7.30
2024-01-05T23:11:37.745Z,5.70
2024-01-05T23:14:14.209Z,3.90
2024-01-05T23:16:51.389Z,4.90
2024-01-05T23:19:28.095Z,5.60
2024-01-05T23:22:05.029Z,4.10
2024-01-05T23:24:41.664Z,2.80
2024-01-05T23:27:18.381Z,7.90
2024-01-05T23:29:54.905Z,5.00
2024-01-05T23:32:31.562Z,3.60
2024-01-05T23:35:09.639Z,7.90
2024-01-05T23:37:46.808Z,312.20
2024-01-05T23:40:23.330Z,270.50
2024-01-05T23:42:59.721Z,132.50
2024-01-05T23:45:36.328Z,115.10
2024-01-05T23:48:14.268Z,89.70
2024-01-05T23:50:50.848Z,44.90
2024-01-05T23:53:27.524Z,56.70
2024-01-05T23:56:04.379Z,61.00
2024-01-05T23:58:40.881Z,24.80
